createdAt,value
2018-10-16T00:01:30.534Z,12.13
2018-10-16T00:04:02.839Z,12.77
2018-10-16T00:06:35.100Z,12.30
2018-10-16T00:09:08.765Z,10.40
2018-10-16T00:11:52.385Z,12.90
2018-10-16T00:14:24.617Z,11.73
2018-10-16T00:16:57.042Z,13.43
2018-10-16T00:19:30.017Z,12.53
2018-10-16T00:22:02.828Z,12.53
2018-10-16T00:24:35.077Z,13.10
2018-10-16T00:27:07.381Z,10.77
2018-10-16T00:29:39.648Z,11.17
2018-10-16T00:32:11.898Z,11.57
2018-10-16T00:34:44.162Z,12.37
2018-10-16T00:37:16.429Z,12.70
2018-10-16T00:39:48.704Z,12.77
2018-10-16T00:42:20.980Z,12.10
2018-10-16T00:44:53.234Z,11.07
2018-10-16T00:47:25.565Z,11.90
2018-10-16T00:49:57.944Z,12.17
2018-10-16T00:52:30.228Z,12.57
2018-10-16T00:55:02.544Z,10.33
2018-10-16T00:57:35.393Z,10.83
2018-10-16T01:00:08.761Z,12.70
2018-10-16T01:02:42.215Z,10.40
2018-10-16T01:05:14.501Z,10.53
2018-10-16T01:07:46.753Z,10.93
2018-10-16T01:10:19.083Z,10.80
2018-10-16T01:12:51.382Z,11.27
2018-10-16T01:15:23.726Z,12.07
2018-10-16T01:17:56.020Z,11.40
2018-10-16T01:20:29.644Z,11.77
2018-10-16T01:23:01.887Z,11.67
2018-10-16T01:25:34.164Z,11.30
2018-10-16T01:28:06.402Z,12.00
2018-10-16T01:30:38.692Z,11.07
2018-10-16T01:33:11.060Z,10.60
2018-10-16T01:35:43.325Z,10.87
2018-10-16T01:38:15.661Z,11.23
2018-10-16T01:40:47.960Z,11.33
2018-10-16T01:43:20.381Z,12.27
2018-10-16T01:45:52.837Z,11.73
2018-10-16T01:48:25.107Z,12.07
2018-10-16T01:50:57.482Z,11.23
2018-10-16T01:53:29.869Z,11.97
2018-10-16T01:56:02.397Z,14.00
2018-10-16T01:58:34.662Z,12.77
2018-10-16T02:01:07.001Z,11.63
2018-10-16T02:03:39.287Z,10.23
2018-10-16T02:06:11.550Z,11.20
2018-10-16T02:08:43.857Z,10.50
2018-10-16T02:11:16.233Z,12.17
2018-10-16T02:13:48.498Z,12.00
2018-10-16T02:16:20.898Z,11.83
2018-10-16T02:18:53.235Z,10.87
2018-10-16T02:21:25.518Z,12.70
2018-10-16T02:23:57.768Z,13.23
2018-10-16T02:26:30.089Z,11.40
2018-10-16T02:29:02.453Z,12.20
2018-10-16T02:31:34.802Z,11.60
2018-10-16T02:34:07.066Z,12.17
2018-10-16T02:36:39.386Z,11.63
2018-10-16T02:39:11.789Z,12.70
2018-10-16T02:41:44.123Z,12.60
2018-10-16T02:44:16.392Z,11.70
2018-10-16T02:46:48.629Z,12.90
2018-10-16T02:49:20.921Z,14.73
2018-10-16T02:51:53.177Z,15.80
2018-10-16T02:54:25.573Z,13.10
2018-10-16T02:56:57.838Z,13.53
2018-10-16T02:59:30.137Z,13.43
2018-10-16T03:02:02.448Z,16.30
2018-10-16T03:04:34.942Z,13.00
2018-10-16T03:07:07.441Z,14.17
2018-10-16T03:09:39.767Z,12.10
2018-10-16T03:12:12.045Z,14.37
2018-10-16T03:14:44.314Z,12.53
2018-10-16T03:17:16.656Z,13.70
2018-10-16T03:19:49.003Z,14.23
2018-10-16T03:22:21.359Z,13.30
2018-10-16T03:24:53.617Z,13.37
2018-10-16T03:27:25.877Z,13.40
2018-10-16T03:29:58.158Z,12.87
2018-10-16T03:32:30.575Z,13.03
2018-10-16T03:35:02.950Z,13.40
2018-10-16T03:37:35.585Z,12.07
2018-10-16T03:40:08.856Z,13.93
2018-10-16T03:42:41.823Z,12.77
2018-10-16T03:45:14.089Z,14.20
2018-10-16T03:47:46.452Z,14.93
2018-10-16T03:50:18.670Z,13.50
2018-10-16T03:52:51.011Z,13.90
2018-10-16T03:55:23.403Z,11.83
2018-10-16T03:57:55.885Z,10.93
2018-10-16T04:00:28.245Z,12.77
2018-10-16T04:03:00.637Z,12.73
2018-10-16T04:05:32.947Z,14.27
2018-10-16T04:08:05.454Z,14.20
2018-10-16T04:10:37.780Z,12.70
2018-10-16T04:13:10.045Z,11.83
2018-10-16T04:15:42.289Z,12.80
2018-10-16T04:18:14.557Z,12.00
2018-10-16T04:20:46.901Z,12.80
2018-10-16T04:23:19.157Z,11.87
2018-10-16T04:25:51.469Z,14.17
2018-10-16T04:28:23.768Z,12.43
2018-10-16T04:30:56.385Z,14.00
2018-10-16T04:33:28.667Z,13.07
2018-10-16T04:36:00.961Z,11.80
2018-10-16T04:38:33.368Z,12.73
2018-10-16T04:41:05.647Z,12.33
2018-10-16T04:43:38.013Z,12.73
2018-10-16T04:46:10.229Z,11.23
2018-10-16T04:48:42.521Z,14.07
2018-10-16T04:51:14.837Z,12.87
2018-10-16T04:53:47.101Z,12.27
2018-10-16T04:56:19.369Z,17.07
2018-10-16T04:58:51.782Z,16.63
2018-10-16T05:01:24.101Z,14.80
2018-10-16T05:03:56.442Z,15.57
2018-10-16T05:06:28.701Z,15.90
2018-10-16T05:09:01.027Z,15.80
2018-10-16T05:11:34.244Z,17.37
2018-10-16T05:14:06.522Z,14.43
2018-10-16T05:16:38.793Z,16.53
2018-10-16T05:19:11.482Z,14.97
2018-10-16T05:21:43.730Z,15.27
2018-10-16T05:24:16.120Z,15.03
2018-10-16T05:26:48.429Z,14.13
2018-10-16T05:29:20.719Z,16.10
2018-10-16T05:31:53.040Z,14.53
2018-10-16T05:34:25.353Z,14.50
2018-10-16T05:36:57.626Z,15.20
2018-10-16T05:39:29.886Z,19.20
2018-10-16T05:42:02.229Z,16.60
2018-10-16T05:44:34.623Z,17.07
2018-10-16T05:47:07.017Z,17.97
2018-10-16T05:49:39.323Z,15.47
2018-10-16T05:52:11.625Z,14.77
2018-10-16T05:54:43.890Z,15.00
2018-10-16T05:57:16.224Z,16.67
2018-10-16T05:59:48.678Z,15.40
2018-10-16T06:02:20.941Z,18.17
2018-10-16T06:04:53.250Z,15.83
2018-10-16T06:07:25.662Z,16.43
2018-10-16T06:09:58.084Z,16.83
2018-10-16T06:12:30.553Z,19.07
2018-10-16T06:15:03.381Z,17.30
2018-10-16T06:17:36.029Z,16.20
2018-10-16T06:20:10.789Z,17.00
2018-10-16T06:22:43.283Z,16.87
2018-10-16T06:25:15.604Z,16.13
2018-10-16T06:27:47.916Z,14.43
2018-10-16T06:30:20.288Z,16.03
2018-10-16T06:32:52.533Z,17.43
2018-10-16T06:35:24.837Z,15.20
2018-10-16T06:37:57.125Z,15.03
2018-10-16T06:40:29.463Z,17.37
2018-10-16T06:43:01.818Z,16.23
2018-10-16T06:45:34.451Z,16.03
2018-10-16T06:48:07.011Z,17.13
2018-10-16T06:50:39.513Z,15.70
2018-10-16T06:53:11.998Z,15.57
2018-10-16T06:55:44.432Z,15.83
2018-10-16T06:58:16.825Z,15.63
2018-10-16T07:00:49.349Z,16.77
2018-10-16T07:03:21.899Z,16.40
2018-10-16T07:05:54.382Z,15.80
2018-10-16T07:08:26.869Z,17.37
2018-10-16T07:10:59.186Z,16.13
2018-10-16T07:13:31.434Z,16.17
2018-10-16T07:16:04.141Z,16.67
2018-10-16T07:18:36.379Z,14.10
2018-10-16T07:21:08.768Z,16.90
2018-10-16T07:23:41.047Z,16.20
2018-10-16T07:26:13.326Z,17.33
2018-10-16T07:28:45.589Z,15.17
2018-10-16T07:31:18.045Z,16.80
2018-10-16T07:33:50.453Z,15.87
2018-10-16T07:36:22.818Z,14.70
2018-10-16T07:38:55.307Z,15.47
2018-10-16T07:41:27.485Z,15.77
2018-10-16T07:43:59.794Z,15.00
2018-10-16T07:46:32.089Z,15.90
2018-10-16T07:49:04.918Z,16.10
2018-10-16T07:51:37.456Z,13.87
2018-10-16T07:54:09.760Z,16.93
2018-10-16T07:56:42.130Z,14.50
2018-10-16T07:59:14.497Z,15.17
2018-10-16T08:01:46.941Z,14.40
2018-10-16T08:04:19.458Z,13.93
2018-10-16T08:06:51.807Z,15.17
2018-10-16T08:09:24.226Z,15.33
2018-10-16T08:11:56.670Z,14.00
2018-10-16T08:14:29.021Z,15.73
2018-10-16T08:17:01.335Z,18.37
2018-10-16T08:19:34.042Z,16.67
2018-10-16T08:22:06.361Z,16.00
2018-10-16T08:24:38.727Z,16.03
2018-10-16T08:27:11.291Z,15.77
2018-10-16T08:29:43.573Z,15.60
2018-10-16T08:32:15.965Z,16.62
2018-10-16T08:34:48.262Z,15.40
2018-10-16T08:37:31.945Z,15.28
2018-10-16T08:40:05.323Z,15.23
2018-10-16T08:43:23.504Z,14.80
2018-10-16T08:46:07.529Z,13.88
2018-10-16T08:48:51.185Z,15.35
2018-10-16T08:51:33.366Z,15.50
2018-10-16T08:54:05.925Z,17.23
2018-10-16T08:56:38.334Z,14.93
2018-10-16T08:59:10.790Z,15.72
2018-10-16T09:01:43.204Z,14.50
2018-10-16T09:04:15.658Z,14.05
2018-10-16T09:06:47.990Z,15.08
2018-10-16T09:09:20.338Z,11.50
2018-10-16T09:11:52.725Z,14.45
2018-10-16T09:14:24.996Z,14.70
2018-10-16T09:16:57.291Z,14.33
2018-10-16T09:19:29.675Z,12.78
2018-10-16T09:22:01.993Z,12.70
2018-10-16T09:24:34.255Z,13.22
2018-10-16T09:27:06.574Z,13.50
2018-10-16T09:29:38.984Z,13.78
2018-10-16T09:32:11.257Z,13.55
2018-10-16T09:34:43.549Z,12.80
2018-10-16T09:37:15.982Z,13.03
2018-10-16T09:39:48.301Z,12.65
2018-10-16T09:42:20.804Z,11.65
2018-10-16T09:44:53.230Z,9.80
2018-10-16T09:47:25.505Z,11.68
2018-10-16T09:49:57.936Z,10.55
2018-10-16T09:52:30.261Z,11.48
2018-10-16T09:55:02.584Z,10.93
2018-10-16T09:57:34.866Z,10.10
2018-10-16T10:01:19.278Z,9.35
2018-10-16T10:03:51.577Z,10.15
2018-10-16T10:06:23.886Z,10.70
2018-10-16T10:08:56.215Z,10.55
2018-10-16T10:11:28.854Z,9.78
2018-10-16T10:14:01.175Z,10.00
2018-10-16T10:16:33.406Z,8.70
2018-10-16T10:19:05.791Z,9.20
2018-10-16T10:21:38.099Z,7.83
2018-10-16T10:24:10.412Z,9.30
2018-10-16T10:26:42.692Z,8.45
2018-10-16T10:29:15.012Z,9.40
2018-10-16T10:31:47.292Z,10.00
2018-10-16T10:34:19.589Z,9.20
2018-10-16T10:36:51.894Z,8.93
2018-10-16T10:39:24.347Z,8.00
2018-10-16T10:41:56.757Z,9.23
2018-10-16T10:44:29.102Z,10.60
2018-10-16T10:47:01.536Z,10.03
2018-10-16T10:49:33.985Z,10.45
2018-10-16T10:52:06.373Z,8.85
2018-10-16T10:54:38.722Z,8.05
2018-10-16T10:57:11.342Z,7.65
2018-10-16T10:59:43.485Z,8.00
2018-10-16T11:02:15.785Z,7.60
2018-10-16T11:04:48.070Z,8.30
2018-10-16T11:07:20.377Z,9.55
2018-10-16T11:09:52.674Z,9.20
2018-10-16T11:12:25.074Z,8.58
2018-10-16T11:14:57.371Z,8.25
2018-10-16T11:17:29.826Z,8.48
2018-10-16T11:20:02.175Z,8.03
2018-10-16T11:22:34.633Z,8.68
2018-10-16T11:25:08.099Z,7.95
2018-10-16T11:27:40.498Z,8.55
2018-10-16T11:30:14.147Z,8.85
2018-10-16T11:32:46.632Z,7.85
2018-10-16T11:35:18.902Z,9.30
2018-10-16T11:37:51.163Z,8.60
2018-10-16T11:40:23.457Z,9.15
2018-10-16T11:42:55.749Z,8.63
2018-10-16T11:45:28.086Z,8.00
2018-10-16T11:48:00.561Z,8.00
2018-10-16T11:50:32.853Z,7.08
2018-10-16T11:53:05.361Z,8.48
2018-10-16T11:55:37.709Z,7.50
2018-10-16T11:58:09.966Z,7.78
2018-10-16T12:00:42.265Z,8.03
2018-10-16T12:03:14.536Z,7.92
2018-10-16T12:05:46.858Z,7.50
2018-10-16T12:08:19.089Z,8.50
2018-10-16T12:10:51.469Z,7.78
2018-10-16T12:13:23.713Z,8.00
2018-10-16T12:15:56.023Z,6.72
2018-10-16T12:18:34.022Z,7.72
2018-10-16T12:21:23.867Z,8.03
2018-10-16T12:23:56.227Z,7.75
2018-10-16T12:26:28.481Z,7.97
2018-10-16T12:29:00.771Z,7.53
2018-10-16T12:31:33.161Z,7.87
2018-10-16T12:34:05.429Z,8.03
2018-10-16T12:36:37.817Z,7.90
2018-10-16T12:39:10.268Z,8.58
2018-10-16T12:41:42.600Z,8.13
2018-10-16T12:44:14.985Z,8.53
2018-10-16T12:46:47.337Z,7.92
2018-10-16T12:49:19.831Z,7.30
2018-10-16T12:51:52.085Z,7.72
2018-10-16T12:54:24.357Z,8.05
2018-10-16T12:56:56.773Z,7.60
2018-10-16T12:59:29.874Z,7.00
2018-10-16T13:02:02.176Z,8.08
2018-10-16T13:04:34.456Z,8.05
2018-10-16T13:07:11.353Z,7.65
2018-10-16T13:09:43.645Z,7.30
2018-10-16T13:12:15.890Z,7.58
2018-10-16T13:14:48.196Z,8.13
2018-10-16T13:17:20.498Z,7.92
2018-10-16T13:19:52.929Z,8.48
2018-10-16T13:22:25.349Z,7.58
2018-10-16T13:24:57.865Z,6.25
2018-10-16T13:27:30.130Z,7.50
2018-10-16T13:30:02.540Z,7.22
2018-10-16T13:32:34.711Z,6.58
2018-10-16T13:35:08.920Z,7.12
2018-10-16T13:37:41.318Z,7.70
2018-10-16T13:40:13.760Z,7.25
2018-10-16T13:42:46.214Z,7.92
2018-10-16T13:45:18.447Z,7.80
2018-10-16T13:47:50.751Z,6.53
2018-10-16T13:50:23.119Z,5.60
2018-10-16T13:52:55.512Z,7.00
2018-10-16T13:55:28.053Z,7.65
2018-10-16T13:58:00.523Z,5.92
2018-10-16T14:00:32.906Z,8.10
2018-10-16T14:03:05.232Z,7.17
2018-10-16T14:05:37.701Z,6.33
2018-10-16T14:08:10.083Z,6.10
2018-10-16T14:10:42.267Z,7.25
2018-10-16T14:13:14.599Z,6.40
2018-10-16T14:15:46.877Z,7.20
2018-10-16T14:18:19.216Z,7.75
2018-10-16T14:20:51.610Z,6.95
2018-10-16T14:23:24.861Z,7.20
2018-10-16T14:25:57.374Z,7.10
2018-10-16T14:28:29.948Z,7.28
2018-10-16T14:31:02.229Z,7.10
2018-10-16T14:33:34.617Z,6.80
2018-10-16T14:36:06.928Z,7.75
2018-10-16T14:38:39.264Z,6.78
2018-10-16T14:41:11.563Z,6.83
2018-10-16T14:43:43.920Z,6.97
2018-10-16T14:46:16.315Z,6.05
2018-10-16T14:48:48.714Z,6.62
2018-10-16T14:51:21.131Z,7.33
2018-10-16T14:53:53.458Z,7.35
2018-10-16T14:56:26.034Z,6.92
2018-10-16T14:58:58.664Z,6.35
2018-10-16T15:01:30.954Z,6.08
2018-10-16T15:04:03.422Z,6.65
2018-10-16T15:06:35.709Z,6.55
2018-10-16T15:09:08.910Z,6.70
2018-10-16T15:11:41.215Z,6.72
2018-10-16T15:14:13.570Z,6.67
2018-10-16T15:16:46.016Z,6.03
2018-10-16T15:19:18.353Z,6.55
2018-10-16T15:21:50.917Z,6.90
2018-10-16T15:24:23.405Z,6.47
2018-10-16T15:26:55.858Z,6.37
2018-10-16T15:29:28.250Z,5.80
2018-10-16T15:32:00.641Z,6.37
2018-10-16T15:34:32.885Z,6.65
2018-10-16T15:37:05.814Z,6.53
2018-10-16T15:39:38.113Z,6.70
2018-10-16T15:42:10.661Z,6.60
2018-10-16T15:44:43.168Z,6.30
2018-10-16T15:47:15.522Z,6.40
2018-10-16T15:49:47.821Z,5.92
2018-10-16T15:52:20.180Z,7.20
2018-10-16T15:54:52.506Z,6.37
2018-10-16T15:57:24.925Z,6.25
2018-10-16T15:59:57.321Z,6.03
2018-10-16T16:02:29.770Z,6.55
2018-10-16T16:05:02.074Z,6.45
2018-10-16T16:07:34.430Z,6.78
2018-10-16T16:10:08.744Z,6.30
2018-10-16T16:12:41.213Z,6.58
2018-10-16T16:15:13.953Z,6.42
2018-10-16T16:17:46.449Z,8.98
2018-10-16T16:20:19.061Z,6.50
2018-10-16T16:22:51.488Z,6.12
2018-10-16T16:25:23.902Z,6.92
2018-10-16T16:27:56.266Z,6.28
2018-10-16T16:30:28.667Z,8.28
2018-10-16T16:33:01.140Z,7.15
2018-10-16T16:35:33.559Z,6.08
2018-10-16T16:38:06.065Z,8.18
2018-10-16T16:40:38.450Z,7.80
2018-10-16T16:43:10.952Z,6.60
2018-10-16T16:45:43.532Z,9.00
2018-10-16T16:48:15.824Z,6.92
2018-10-16T16:50:48.257Z,7.40
2018-10-16T16:53:20.834Z,8.20
2018-10-16T16:55:53.331Z,6.90
2018-10-16T16:58:25.778Z,7.53
2018-10-16T17:00:58.346Z,7.53
2018-10-16T17:03:30.778Z,8.38
2018-10-16T17:06:03.307Z,9.53
2018-10-16T17:08:35.738Z,8.33
2018-10-16T17:11:08.123Z,8.15
2018-10-16T17:13:40.430Z,8.15
2018-10-16T17:16:12.957Z,8.25
2018-10-16T17:18:45.202Z,8.25
2018-10-16T17:21:17.533Z,7.47
2018-10-16T17:23:49.979Z,7.78
2018-10-16T17:26:22.417Z,8.00
2018-10-16T17:28:54.810Z,9.30
2018-10-16T17:31:27.246Z,8.35
2018-10-16T17:36:43.214Z,8.53
2018-10-16T17:39:15.706Z,7.45
2018-10-16T17:41:48.154Z,7.17
2018-10-16T17:44:20.538Z,7.75
2018-10-16T17:46:53.085Z,8.68
2018-10-16T17:49:25.654Z,7.85
2018-10-16T17:51:58.051Z,7.50
2018-10-16T17:54:30.389Z,8.15
2018-10-16T17:57:02.844Z,7.87
2018-10-16T17:59:35.244Z,9.08
2018-10-16T18:02:07.648Z,7.20
2018-10-16T18:04:40.113Z,8.63
2018-10-16T18:07:12.513Z,7.92
2018-10-16T18:09:44.875Z,7.58
2018-10-16T18:12:17.264Z,8.90
2018-10-16T18:14:49.910Z,10.32
2018-10-16T18:17:22.439Z,9.65
2018-10-16T18:19:55.057Z,9.68
2018-10-16T18:22:27.491Z,9.25
2018-10-16T18:25:00.067Z,7.95
2018-10-16T18:27:32.404Z,9.90
2018-10-16T18:30:05.758Z,8.43
2018-10-16T18:32:38.421Z,10.35
2018-10-16T18:35:10.998Z,11.80
2018-10-16T18:37:43.830Z,10.30
2018-10-16T18:40:16.192Z,11.70
2018-10-16T18:42:48.562Z,9.60
2018-10-16T18:45:20.950Z,9.10
2018-10-16T18:47:53.360Z,8.60
2018-10-16T18:50:25.867Z,10.80
2018-10-16T18:52:58.373Z,9.63
2018-10-16T18:55:30.783Z,9.20
2018-10-16T18:58:03.227Z,9.23
2018-10-16T19:00:35.903Z,9.73
2018-10-16T19:03:08.315Z,10.53
2018-10-16T19:05:40.657Z,9.70
2018-10-16T19:08:13.057Z,10.53
2018-10-16T19:10:45.421Z,10.00
2018-10-16T19:13:17.787Z,10.70
2018-10-16T19:15:50.140Z,9.73
2018-10-16T19:18:22.503Z,9.47
2018-10-16T19:20:54.999Z,11.00
2018-10-16T19:23:27.353Z,9.57
2018-10-16T19:25:59.699Z,9.20
2018-10-16T19:28:32.091Z,8.90
2018-10-16T19:31:04.728Z,7.30
2018-10-16T19:33:37.123Z,10.90
2018-10-16T19:36:09.508Z,10.17
2018-10-16T19:38:41.890Z,12.57
2018-10-16T19:41:14.417Z,13.10
2018-10-16T19:43:46.828Z,11.03
2018-10-16T19:46:19.150Z,11.03
2018-10-16T19:48:51.493Z,10.57
2018-10-16T19:51:23.894Z,10.73
2018-10-16T19:53:56.365Z,8.73
2018-10-16T19:56:28.788Z,10.87
2018-10-16T19:59:01.165Z,11.70
2018-10-16T20:01:33.598Z,12.30
2018-10-16T20:04:05.934Z,11.70
2018-10-16T20:06:38.266Z,10.53
2018-10-16T20:09:11.626Z,10.83
2018-10-16T20:11:44.076Z,10.70
2018-10-16T20:14:16.495Z,12.33
2018-10-16T20:16:49.157Z,11.30
2018-10-16T20:19:21.713Z,11.80
2018-10-16T20:21:54.111Z,10.70
2018-10-16T20:24:26.472Z,10.63
2018-10-16T20:26:58.865Z,11.13
2018-10-16T20:29:31.218Z,10.33
2018-10-16T20:32:03.796Z,11.17
2018-10-16T20:34:36.290Z,10.97
2018-10-16T20:37:08.802Z,12.47
2018-10-16T20:39:41.157Z,8.80
2018-10-16T20:42:13.588Z,10.93
2018-10-16T20:44:45.885Z,11.17
2018-10-16T20:47:18.224Z,10.00
2018-10-16T20:49:50.533Z,12.00
2018-10-16T20:52:22.860Z,10.63
2018-10-16T20:54:55.368Z,11.03
2018-10-16T20:57:27.705Z,11.67
2018-10-16T21:00:00.537Z,10.67
2018-10-16T21:02:32.833Z,10.83
2018-10-16T21:05:06.548Z,11.00
2018-10-16T21:07:38.778Z,10.43
2018-10-16T21:10:11.087Z,10.57
2018-10-16T21:12:43.379Z,10.70
2018-10-16T21:15:15.690Z,11.10
2018-10-16T21:17:47.980Z,9.87
2018-10-16T21:20:20.348Z,11.50
2018-10-16T21:22:52.707Z,12.20
2018-10-16T21:25:25.029Z,11.80
2018-10-16T21:27:57.293Z,13.77
2018-10-16T21:30:29.694Z,11.80
2018-10-16T21:33:02.067Z,15.10
2018-10-16T21:35:34.410Z,15.43
2018-10-16T21:38:06.762Z,14.27
2018-10-16T21:40:39.096Z,11.47
2018-10-16T21:43:11.495Z,14.30
2018-10-16T21:45:44.222Z,13.20
2018-10-16T21:48:16.528Z,12.57
2018-10-16T21:50:48.883Z,11.63
2018-10-16T21:53:21.182Z,13.13
2018-10-16T21:55:53.545Z,11.43
2018-10-16T21:58:25.865Z,12.50
2018-10-16T22:01:03.779Z,10.93
2018-10-16T22:03:36.114Z,11.80
2018-10-16T22:06:08.509Z,11.30
2018-10-16T22:08:40.772Z,11.00
2018-10-16T22:11:13.139Z,13.00
2018-10-16T22:13:45.393Z,11.43
2018-10-16T22:16:17.734Z,11.80
2018-10-16T22:18:50.024Z,10.10
2018-10-16T22:21:22.349Z,11.10
2018-10-16T22:23:54.676Z,11.80
2018-10-16T22:26:27.138Z,11.40
2018-10-16T22:28:59.977Z,10.33
2018-10-16T22:31:33.354Z,10.57
2018-10-16T22:34:06.162Z,11.10
2018-10-16T22:36:38.492Z,11.53
2018-10-16T22:39:11.168Z,11.17
2018-10-16T22:41:43.638Z,11.90
2018-10-16T22:44:16.009Z,11.40
2018-10-16T22:46:48.346Z,11.90
2018-10-16T22:49:20.630Z,11.53
2018-10-16T22:51:53.044Z,10.07
2018-10-16T22:54:25.380Z,11.53
2018-10-16T22:56:57.664Z,11.17
2018-10-16T22:59:30.017Z,11.10
2018-10-16T23:02:02.395Z,11.37
2018-10-16T23:04:35.030Z,11.73
2018-10-16T23:07:07.468Z,13.10
2018-10-16T23:09:39.788Z,11.33
2018-10-16T23:12:12.058Z,10.87
2018-10-16T23:14:44.439Z,10.97
2018-10-16T23:17:16.813Z,10.10
2018-10-16T23:19:49.125Z,11.53
2018-10-16T23:22:21.376Z,10.67
2018-10-16T23:24:53.807Z,11.90
2018-10-16T23:27:26.097Z,10.00
2018-10-16T23:29:58.393Z,10.10
2018-10-16T23:32:30.637Z,12.73
2018-10-16T23:35:02.987Z,12.10
2018-10-16T23:37:35.291Z,11.40
2018-10-16T23:40:07.888Z,11.47
2018-10-16T23:42:40.256Z,11.60
2018-10-16T23:45:12.532Z,12.07
2018-10-16T23:47:44.813Z,11.43
2018-10-16T23:50:17.142Z,11.30
2018-10-16T23:52:49.397Z,11.57
2018-10-16T23:55:21.679Z,11.03
2018-10-16T23:57:53.937Z,11.80
